Terminal Aerodrome Forecast
Issued by NWS Jacksonville, FL

Home | Current Version | Previous Version | Text Only | Print | Product List | Glossary On
Versions: 1 2 3 4 5 6 7 8 9 10 11 12 13 14 15 16 17 18 19 20 21 22 23 24 25 26 27 28 29 30 31 32 33 34
000
FTUS42 KJAX 201120
TAFJAX
TAF
KJAX 201120Z 2012/2112 VRB03KT P6SM SCT250
     FM201800 10007KT P6SM VCTS BKN040CB
     FM202200 11009KT P6SM SCT050 BKN120
     FM210500 11003KT P6SM BKN025=

USA.gov is the U.S. government's official web portal to all federal, state and local government web resources and services.